sensor_id;sensor_type;location;lat;lon;timestamp;P1;durP1;ratioP1;P2;durP2;ratioP2
77814;SDS011;67002;52.124;21.210;2023-05-19T00:02:11;6.60;;;3.30;;
77814;SDS011;67002;52.124;21.210;2023-05-19T00:04:44;8.40;;;3.70;;
77814;SDS011;67002;52.124;21.210;2023-05-19T00:07:17;7.70;;;3.20;;
77814;SDS011;67002;52.124;21.210;2023-05-19T00:09:50;10.10;;;2.90;;
77814;SDS011;67002;52.124;21.210;2023-05-19T00:12:22;5.70;;;3.00;;
77814;SDS011;67002;52.124;21.210;2023-05-19T00:14:55;5.20;;;2.80;;
77814;SDS011;67002;52.124;21.210;2023-05-19T00:17:27;7.20;;;3.20;;
77814;SDS011;67002;52.124;21.210;2023-05-19T00:19:59;5.50;;;3.20;;
77814;SDS011;67002;52.124;21.210;2023-05-19T00:22:35;6.40;;;2.90;;
77814;SDS011;67002;52.124;21.210;2023-05-19T00:25:07;4.30;;;2.60;;
77814;SDS011;67002;52.124;21.210;2023-05-19T00:27:39;3.90;;;2.40;;
77814;SDS011;67002;52.124;21.210;2023-05-19T00:30:12;4.70;;;2.30;;
77814;SDS011;67002;52.124;21.210;2023-05-19T00:32:44;4.80;;;2.60;;
77814;SDS011;67002;52.124;21.210;2023-05-19T00:35:16;5.20;;;2.80;;
77814;SDS011;67002;52.124;21.210;2023-05-19T00:37:48;5.10;;;2.50;;
77814;SDS011;67002;52.124;21.210;2023-05-19T00:40:20;5.80;;;2.60;;
77814;SDS011;67002;52.124;21.210;2023-05-19T00:42:53;5.90;;;2.20;;
77814;SDS011;67002;52.124;21.210;2023-05-19T00:45:25;4.80;;;2.50;;
77814;SDS011;67002;52.124;21.210;2023-05-19T00:47:57;5.70;;;2.40;;
77814;SDS011;67002;52.124;21.210;2023-05-19T00:50:29;6.00;;;2.40;;
77814;SDS011;67002;52.124;21.210;2023-05-19T00:53:02;4.00;;;1.90;;
77814;SDS011;67002;52.124;21.210;2023-05-19T00:55:35;4.10;;;2.10;;
77814;SDS011;67002;52.124;21.210;2023-05-19T00:58:09;4.00;;;1.80;;
77814;SDS011;67002;52.124;21.210;2023-05-19T01:00:41;3.70;;;1.80;;
77814;SDS011;67002;52.124;21.210;2023-05-19T01:03:13;4.30;;;2.20;;
77814;SDS011;67002;52.124;21.210;2023-05-19T01:05:48;4.30;;;2.40;;
77814;SDS011;67002;52.124;21.210;2023-05-19T01:08:21;5.90;;;2.30;;
77814;SDS011;67002;52.124;21.210;2023-05-19T01:10:54;3.50;;;2.10;;
77814;SDS011;67002;52.124;21.210;2023-05-19T01:13:26;4.40;;;2.10;;
77814;SDS011;67002;52.124;21.210;2023-05-19T01:15:59;3.20;;;2.00;;
77814;SDS011;67002;52.124;21.210;2023-05-19T01:18:42;2.60;;;1.90;;
77814;SDS011;67002;52.124;21.210;2023-05-19T01:24:44;3.30;;;1.90;;
77814;SDS011;67002;52.124;21.210;2023-05-19T01:27:42;3.00;;;1.80;;
77814;SDS011;67002;52.124;21.210;2023-05-19T01:30:22;2.70;;;1.60;;
77814;SDS011;67002;52.124;21.210;2023-05-19T01:32:57;4.70;;;2.70;;
77814;SDS011;67002;52.124;21.210;2023-05-19T01:35:31;4.10;;;2.30;;
77814;SDS011;67002;52.124;21.210;2023-05-19T01:38:07;4.10;;;2.00;;
77814;SDS011;67002;52.124;21.210;2023-05-19T01:40:41;4.40;;;2.20;;
77814;SDS011;67002;52.124;21.210;2023-05-19T01:43:14;5.30;;;1.80;;
77814;SDS011;67002;52.124;21.210;2023-05-19T01:45:48;5.00;;;2.10;;
77814;SDS011;67002;52.124;21.210;2023-05-19T01:48:21;4.20;;;2.20;;
77814;SDS011;67002;52.124;21.210;2023-05-19T01:50:53;3.70;;;2.00;;
77814;SDS011;67002;52.124;21.210;2023-05-19T01:53:25;2.50;;;1.60;;
77814;SDS011;67002;52.124;21.210;2023-05-19T01:55:57;4.00;;;1.90;;
77814;SDS011;67002;52.124;21.210;2023-05-19T01:58:33;2.90;;;1.70;;
77814;SDS011;67002;52.124;21.210;2023-05-19T02:01:10;2.30;;;1.60;;
77814;SDS011;67002;52.124;21.210;2023-05-19T02:03:56;3.80;;;1.80;;
77814;SDS011;67002;52.124;21.210;2023-05-19T02:06:38;3.70;;;2.20;;
77814;SDS011;67002;52.124;21.210;2023-05-19T02:09:16;3.40;;;1.70;;
77814;SDS011;67002;52.124;21.210;2023-05-19T02:11:52;3.10;;;1.70;;
77814;SDS011;67002;52.124;21.210;2023-05-19T02:14:29;3.90;;;2.10;;
77814;SDS011;67002;52.124;21.210;2023-05-19T02:17:06;4.70;;;2.10;;
77814;SDS011;67002;52.124;21.210;2023-05-19T02:19:39;4.10;;;2.40;;
77814;SDS011;67002;52.124;21.210;2023-05-19T02:22:11;4.30;;;2.20;;
77814;SDS011;67002;52.124;21.210;2023-05-19T02:24:43;4.00;;;2.20;;
77814;SDS011;67002;52.124;21.210;2023-05-19T02:27:15;3.20;;;2.00;;
77814;SDS011;67002;52.124;21.210;2023-05-19T02:29:47;3.70;;;2.20;;
77814;SDS011;67002;52.124;21.210;2023-05-19T02:32:19;5.10;;;2.40;;
77814;SDS011;67002;52.124;21.210;2023-05-19T02:34:51;3.30;;;2.20;;
77814;SDS011;67002;52.124;21.210;2023-05-19T02:37:24;4.70;;;2.30;;
77814;SDS011;67002;52.124;21.210;2023-05-19T02:39:59;3.90;;;1.90;;
77814;SDS011;67002;52.124;21.210;2023-05-19T02:42:31;4.90;;;1.80;;
77814;SDS011;67002;52.124;21.210;2023-05-19T02:45:03;4.10;;;2.00;;
77814;SDS011;67002;52.124;21.210;2023-05-19T02:47:36;4.10;;;2.20;;
77814;SDS011;67002;52.124;21.210;2023-05-19T02:50:09;4.10;;;2.30;;
77814;SDS011;67002;52.124;21.210;2023-05-19T02:52:41;4.60;;;2.30;;
77814;SDS011;67002;52.124;21.210;2023-05-19T02:55:13;4.60;;;2.40;;
77814;SDS011;67002;52.124;21.210;2023-05-19T02:57:45;2.60;;;2.10;;
77814;SDS011;67002;52.124;21.210;2023-05-19T03:00:17;4.80;;;2.50;;
77814;SDS011;67002;52.124;21.210;2023-05-19T03:02:50;5.80;;;2.40;;
77814;SDS011;67002;52.124;21.210;2023-05-19T03:05:22;3.60;;;2.30;;
77814;SDS011;67002;52.124;21.210;2023-05-19T03:07:54;6.20;;;3.10;;
77814;SDS011;67002;52.124;21.210;2023-05-19T03:10:26;5.70;;;2.30;;
77814;SDS011;67002;52.124;21.210;2023-05-19T03:12:58;5.80;;;2.30;;
77814;SDS011;67002;52.124;21.210;2023-05-19T03:15:30;3.90;;;2.10;;
77814;SDS011;67002;52.124;21.210;2023-05-19T03:18:03;5.00;;;2.10;;
77814;SDS011;67002;52.124;21.210;2023-05-19T03:20:36;3.50;;;2.30;;
77814;SDS011;67002;52.124;21.210;2023-05-19T03:25:41;4.80;;;2.70;;
77814;SDS011;67002;52.124;21.210;2023-05-19T03:28:13;3.90;;;2.60;;
77814;SDS011;67002;52.124;21.210;2023-05-19T03:30:45;6.40;;;2.80;;
77814;SDS011;67002;52.124;21.210;2023-05-19T03:33:21;5.10;;;2.60;;
77814;SDS011;67002;52.124;21.210;2023-05-19T03:35:56;4.00;;;2.60;;
77814;SDS011;67002;52.124;21.210;2023-05-19T03:38:32;4.20;;;2.20;;
77814;SDS011;67002;52.124;21.210;2023-05-19T03:41:04;4.40;;;2.40;;
77814;SDS011;67002;52.124;21.210;2023-05-19T03:43:36;5.00;;;2.60;;
77814;SDS011;67002;52.124;21.210;2023-05-19T03:46:08;5.70;;;3.20;;
77814;SDS011;67002;52.124;21.210;2023-05-19T03:49:00;6.70;;;3.00;;
77814;SDS011;67002;52.124;21.210;2023-05-19T03:51:51;6.70;;;3.30;;
77814;SDS011;67002;52.124;21.210;2023-05-19T03:54:37;4.80;;;2.50;;
77814;SDS011;67002;52.124;21.210;2023-05-19T03:57:10;5.60;;;2.80;;
77814;SDS011;67002;52.124;21.210;2023-05-19T03:59:42;6.60;;;2.60;;
77814;SDS011;67002;52.124;21.210;2023-05-19T04:02:14;4.80;;;2.60;;
77814;SDS011;67002;52.124;21.210;2023-05-19T04:07:19;4.30;;;2.50;;
77814;SDS011;67002;52.124;21.210;2023-05-19T04:09:51;4.90;;;3.10;;
77814;SDS011;67002;52.124;21.210;2023-05-19T04:12:23;4.40;;;2.40;;
77814;SDS011;67002;52.124;21.210;2023-05-19T04:14:55;4.10;;;2.80;;
77814;SDS011;67002;52.124;21.210;2023-05-19T04:17:27;4.70;;;3.10;;
77814;SDS011;67002;52.124;21.210;2023-05-19T04:19:58;7.50;;;3.30;;
77814;SDS011;67002;52.124;21.210;2023-05-19T04:22:30;4.90;;;3.20;;
77814;SDS011;67002;52.124;21.210;2023-05-19T04:25:02;4.90;;;3.30;;
77814;SDS011;67002;52.124;21.210;2023-05-19T04:27:35;4.80;;;3.10;;
77814;SDS011;67002;52.124;21.210;2023-05-19T04:30:08;5.30;;;2.90;;
77814;SDS011;67002;52.124;21.210;2023-05-19T04:32:41;5.30;;;3.10;;
77814;SDS011;67002;52.124;21.210;2023-05-19T04:35:13;6.00;;;3.70;;
77814;SDS011;67002;52.124;21.210;2023-05-19T04:37:45;5.60;;;3.30;;
77814;SDS011;67002;52.124;21.210;2023-05-19T04:40:19;6.10;;;3.50;;
77814;SDS011;67002;52.124;21.210;2023-05-19T04:42:52;7.00;;;3.80;;
77814;SDS011;67002;52.124;21.210;2023-05-19T04:45:26;7.30;;;3.10;;
77814;SDS011;67002;52.124;21.210;2023-05-19T04:48:00;3.30;;;2.40;;
77814;SDS011;67002;52.124;21.210;2023-05-19T04:50:32;5.40;;;3.00;;
77814;SDS011;67002;52.124;21.210;2023-05-19T04:53:06;5.30;;;3.20;;
77814;SDS011;67002;52.124;21.210;2023-05-19T04:55:40;4.10;;;2.40;;
77814;SDS011;67002;52.124;21.210;2023-05-19T04:58:13;6.40;;;3.40;;
77814;SDS011;67002;52.124;21.210;2023-05-19T05:00:45;3.60;;;2.60;;
77814;SDS011;67002;52.124;21.210;2023-05-19T05:03:17;6.60;;;3.30;;
77814;SDS011;67002;52.124;21.210;2023-05-19T05:05:51;4.00;;;3.10;;
77814;SDS011;67002;52.124;21.210;2023-05-19T05:08:24;4.70;;;2.50;;
77814;SDS011;67002;52.124;21.210;2023-05-19T05:10:58;3.80;;;2.10;;
77814;SDS011;67002;52.124;21.210;2023-05-19T05:13:31;4.00;;;2.50;;
77814;SDS011;67002;52.124;21.210;2023-05-19T05:16:04;8.60;;;3.20;;
77814;SDS011;67002;52.124;21.210;2023-05-19T05:18:39;3.80;;;2.70;;
77814;SDS011;67002;52.124;21.210;2023-05-19T05:21:13;5.80;;;3.10;;
77814;SDS011;67002;52.124;21.210;2023-05-19T05:23:46;4.10;;;2.80;;
77814;SDS011;67002;52.124;21.210;2023-05-19T05:26:20;5.00;;;2.80;;
77814;SDS011;67002;52.124;21.210;2023-05-19T05:31:24;5.60;;;3.00;;
77814;SDS011;67002;52.124;21.210;2023-05-19T05:33:56;6.80;;;2.80;;
77814;SDS011;67002;52.124;21.210;2023-05-19T05:36:30;5.10;;;3.10;;
77814;SDS011;67002;52.124;21.210;2023-05-19T05:39:03;3.40;;;2.60;;
77814;SDS011;67002;52.124;21.210;2023-05-19T05:41:35;4.90;;;2.40;;
77814;SDS011;67002;52.124;21.210;2023-05-19T05:44:11;6.10;;;2.60;;
77814;SDS011;67002;52.124;21.210;2023-05-19T05:46:45;3.80;;;2.70;;
77814;SDS011;67002;52.124;21.210;2023-05-19T05:49:17;4.40;;;3.00;;
77814;SDS011;67002;52.124;21.210;2023-05-19T05:51:51;7.90;;;3.20;;
77814;SDS011;67002;52.124;21.210;2023-05-19T05:54:39;5.90;;;3.30;;
77814;SDS011;67002;52.124;21.210;2023-05-19T05:57:14;9.10;;;3.20;;
77814;SDS011;67002;52.124;21.210;2023-05-19T05:59:47;6.00;;;3.30;;
77814;SDS011;67002;52.124;21.210;2023-05-19T06:02:19;4.60;;;2.40;;
77814;SDS011;67002;52.124;21.210;2023-05-19T06:04:51;6.90;;;3.10;;
77814;SDS011;67002;52.124;21.210;2023-05-19T06:07:23;5.60;;;3.70;;
77814;SDS011;67002;52.124;21.210;2023-05-19T06:09:55;5.20;;;3.80;;
77814;SDS011;67002;52.124;21.210;2023-05-19T06:12:27;5.60;;;3.00;;
77814;SDS011;67002;52.124;21.210;2023-05-19T06:14:59;5.80;;;3.20;;
77814;SDS011;67002;52.124;21.210;2023-05-19T06:17:52;8.40;;;3.10;;
77814;SDS011;67002;52.124;21.210;2023-05-19T06:20:24;11.60;;;5.30;;
77814;SDS011;67002;52.124;21.210;2023-05-19T06:22:57;3.60;;;2.40;;
77814;SDS011;67002;52.124;21.210;2023-05-19T06:25:29;3.30;;;2.50;;
77814;SDS011;67002;52.124;21.210;2023-05-19T06:28:01;7.40;;;3.30;;
77814;SDS011;67002;52.124;21.210;2023-05-19T06:30:34;5.50;;;3.20;;
77814;SDS011;67002;52.124;21.210;2023-05-19T06:33:15;5.60;;;2.80;;
77814;SDS011;67002;52.124;21.210;2023-05-19T06:35:47;4.70;;;2.50;;
77814;SDS011;67002;52.124;21.210;2023-05-19T06:38:19;6.00;;;2.70;;
77814;SDS011;67002;52.124;21.210;2023-05-19T06:40:51;4.70;;;2.40;;
77814;SDS011;67002;52.124;21.210;2023-05-19T06:43:23;5.80;;;2.70;;
77814;SDS011;67002;52.124;21.210;2023-05-19T06:46:02;5.60;;;2.80;;
77814;SDS011;67002;52.124;21.210;2023-05-19T06:48:34;6.00;;;3.60;;
77814;SDS011;67002;52.124;21.210;2023-05-19T06:51:06;8.30;;;3.30;;
77814;SDS011;67002;52.124;21.210;2023-05-19T06:53:39;5.60;;;2.80;;
77814;SDS011;67002;52.124;21.210;2023-05-19T06:56:12;7.80;;;3.00;;
77814;SDS011;67002;52.124;21.210;2023-05-19T06:58:45;5.80;;;2.70;;
77814;SDS011;67002;52.124;21.210;2023-05-19T07:01:16;8.20;;;3.40;;
77814;SDS011;67002;52.124;21.210;2023-05-19T07:03:53;9.40;;;4.20;;
77814;SDS011;67002;52.124;21.210;2023-05-19T07:06:25;14.80;;;6.40;;
77814;SDS011;67002;52.124;21.210;2023-05-19T07:08:57;7.40;;;3.90;;
77814;SDS011;67002;52.124;21.210;2023-05-19T07:11:31;8.30;;;3.40;;
77814;SDS011;67002;52.124;21.210;2023-05-19T07:14:03;8.80;;;3.60;;
77814;SDS011;67002;52.124;21.210;2023-05-19T07:16:35;7.50;;;3.30;;
77814;SDS011;67002;52.124;21.210;2023-05-19T07:19:07;8.00;;;3.50;;
77814;SDS011;67002;52.124;21.210;2023-05-19T07:21:39;7.40;;;3.30;;
77814;SDS011;67002;52.124;21.210;2023-05-19T07:24:11;8.10;;;3.80;;
77814;SDS011;67002;52.124;21.210;2023-05-19T07:26:43;6.80;;;3.10;;
77814;SDS011;67002;52.124;21.210;2023-05-19T07:29:14;7.60;;;3.10;;
77814;SDS011;67002;52.124;21.210;2023-05-19T07:31:46;6.00;;;3.00;;
77814;SDS011;67002;52.124;21.210;2023-05-19T07:34:22;6.60;;;3.50;;
77814;SDS011;67002;52.124;21.210;2023-05-19T07:36:54;5.70;;;3.60;;
77814;SDS011;67002;52.124;21.210;2023-05-19T07:39:26;9.50;;;3.40;;
77814;SDS011;67002;52.124;21.210;2023-05-19T07:42:00;6.10;;;2.60;;
77814;SDS011;67002;52.124;21.210;2023-05-19T07:47:04;8.00;;;2.70;;
77814;SDS011;67002;52.124;21.210;2023-05-19T07:49:36;9.40;;;3.30;;
77814;SDS011;67002;52.124;21.210;2023-05-19T07:52:08;6.00;;;2.80;;
77814;SDS011;67002;52.124;21.210;2023-05-19T07:54:41;7.70;;;3.60;;
77814;SDS011;67002;52.124;21.210;2023-05-19T07:57:13;6.50;;;2.00;;
77814;SDS011;67002;52.124;21.210;2023-05-19T07:59:46;7.10;;;2.80;;
77814;SDS011;67002;52.124;21.210;2023-05-19T08:02:18;9.90;;;3.60;;
77814;SDS011;67002;52.124;21.210;2023-05-19T08:04:50;8.80;;;3.30;;
77814;SDS011;67002;52.124;21.210;2023-05-19T08:07:22;8.80;;;2.80;;
77814;SDS011;67002;52.124;21.210;2023-05-19T08:09:54;8.60;;;3.50;;
77814;SDS011;67002;52.124;21.210;2023-05-19T08:12:26;7.10;;;2.80;;
77814;SDS011;67002;52.124;21.210;2023-05-19T08:14:58;7.80;;;3.20;;
77814;SDS011;67002;52.124;21.210;2023-05-19T08:17:30;6.00;;;2.10;;
77814;SDS011;67002;52.124;21.210;2023-05-19T08:20:02;9.70;;;3.40;;
77814;SDS011;67002;52.124;21.210;2023-05-19T08:22:36;6.70;;;3.20;;
77814;SDS011;67002;52.124;21.210;2023-05-19T08:25:08;8.60;;;3.30;;
77814;SDS011;67002;52.124;21.210;2023-05-19T08:27:41;8.30;;;3.20;;
77814;SDS011;67002;52.124;21.210;2023-05-19T08:30:13;10.40;;;3.60;;
77814;SDS011;67002;52.124;21.210;2023-05-19T08:32:45;8.50;;;3.20;;
77814;SDS011;67002;52.124;21.210;2023-05-19T08:35:17;10.50;;;3.90;;
77814;SDS011;67002;52.124;21.210;2023-05-19T08:37:49;11.40;;;4.20;;
77814;SDS011;67002;52.124;21.210;2023-05-19T08:40:21;8.90;;;3.20;;
77814;SDS011;67002;52.124;21.210;2023-05-19T08:42:55;11.00;;;3.80;;
77814;SDS011;67002;52.124;21.210;2023-05-19T08:45:27;8.70;;;3.60;;
77814;SDS011;67002;52.124;21.210;2023-05-19T08:47:59;7.90;;;3.30;;
77814;SDS011;67002;52.124;21.210;2023-05-19T08:50:31;9.30;;;3.50;;
77814;SDS011;67002;52.124;21.210;2023-05-19T08:53:11;10.20;;;4.20;;
77814;SDS011;67002;52.124;21.210;2023-05-19T08:58:39;11.20;;;3.20;;
77814;SDS011;67002;52.124;21.210;2023-05-19T09:01:12;10.40;;;3.60;;
77814;SDS011;67002;52.124;21.210;2023-05-19T09:03:45;8.70;;;3.70;;
77814;SDS011;67002;52.124;21.210;2023-05-19T09:06:18;10.60;;;4.20;;
77814;SDS011;67002;52.124;21.210;2023-05-19T09:08:50;9.60;;;3.30;;
77814;SDS011;67002;52.124;21.210;2023-05-19T09:11:22;8.10;;;3.60;;
77814;SDS011;67002;52.124;21.210;2023-05-19T09:13:54;8.00;;;4.30;;
77814;SDS011;67002;52.124;21.210;2023-05-19T09:16:25;9.70;;;3.70;;
77814;SDS011;67002;52.124;21.210;2023-05-19T09:18:58;6.90;;;3.40;;
77814;SDS011;67002;52.124;21.210;2023-05-19T09:21:30;9.20;;;3.20;;
77814;SDS011;67002;52.124;21.210;2023-05-19T09:24:04;11.80;;;4.10;;
77814;SDS011;67002;52.124;21.210;2023-05-19T09:26:37;11.10;;;3.80;;
77814;SDS011;67002;52.124;21.210;2023-05-19T09:29:13;10.30;;;3.80;;
77814;SDS011;67002;52.124;21.210;2023-05-19T09:31:49;8.30;;;3.50;;
77814;SDS011;67002;52.124;21.210;2023-05-19T09:34:23;6.40;;;3.60;;
77814;SDS011;67002;52.124;21.210;2023-05-19T09:36:55;10.50;;;4.40;;
77814;SDS011;67002;52.124;21.210;2023-05-19T09:39:27;6.00;;;3.20;;
77814;SDS011;67002;52.124;21.210;2023-05-19T09:42:02;8.40;;;3.30;;
77814;SDS011;67002;52.124;21.210;2023-05-19T09:44:35;12.30;;;3.90;;
77814;SDS011;67002;52.124;21.210;2023-05-19T09:47:07;10.50;;;3.90;;
77814;SDS011;67002;52.124;21.210;2023-05-19T09:49:44;11.10;;;3.90;;
77814;SDS011;67002;52.124;21.210;2023-05-19T09:52:16;15.10;;;4.50;;
77814;SDS011;67002;52.124;21.210;2023-05-19T09:54:48;8.80;;;3.50;;
77814;SDS011;67002;52.124;21.210;2023-05-19T09:57:20;10.30;;;4.00;;
77814;SDS011;67002;52.124;21.210;2023-05-19T09:59:56;9.70;;;4.60;;
77814;SDS011;67002;52.124;21.210;2023-05-19T10:02:29;7.30;;;3.30;;
77814;SDS011;67002;52.124;21.210;2023-05-19T10:05:02;10.40;;;3.70;;
77814;SDS011;67002;52.124;21.210;2023-05-19T10:07:35;11.20;;;4.40;;
77814;SDS011;67002;52.124;21.210;2023-05-19T10:10:10;10.40;;;4.50;;
77814;SDS011;67002;52.124;21.210;2023-05-19T10:12:42;13.10;;;4.10;;
77814;SDS011;67002;52.124;21.210;2023-05-19T10:15:14;11.80;;;4.10;;
77814;SDS011;67002;52.124;21.210;2023-05-19T10:17:50;9.90;;;3.60;;
77814;SDS011;67002;52.124;21.210;2023-05-19T10:20:22;8.70;;;3.80;;
77814;SDS011;67002;52.124;21.210;2023-05-19T10:22:54;10.50;;;3.90;;
77814;SDS011;67002;52.124;21.210;2023-05-19T10:25:26;12.30;;;4.70;;
77814;SDS011;67002;52.124;21.210;2023-05-19T10:28:00;10.80;;;4.40;;
77814;SDS011;67002;52.124;21.210;2023-05-19T10:30:36;13.20;;;4.20;;
77814;SDS011;67002;52.124;21.210;2023-05-19T10:33:10;12.30;;;4.30;;
77814;SDS011;67002;52.124;21.210;2023-05-19T10:38:46;9.60;;;4.40;;
77814;SDS011;67002;52.124;21.210;2023-05-19T10:41:23;7.90;;;3.60;;
77814;SDS011;67002;52.124;21.210;2023-05-19T10:44:00;9.40;;;3.90;;
77814;SDS011;67002;52.124;21.210;2023-05-19T10:46:39;7.40;;;3.80;;
77814;SDS011;67002;52.124;21.210;2023-05-19T10:49:11;11.20;;;4.20;;
77814;SDS011;67002;52.124;21.210;2023-05-19T10:51:52;10.00;;;4.40;;
77814;SDS011;67002;52.124;21.210;2023-05-19T10:54:39;8.20;;;3.80;;
77814;SDS011;67002;52.124;21.210;2023-05-19T10:57:14;10.20;;;4.30;;
77814;SDS011;67002;52.124;21.210;2023-05-19T11:05:07;7.90;;;4.10;;
77814;SDS011;67002;52.124;21.210;2023-05-19T11:07:42;9.40;;;3.20;;
77814;SDS011;67002;52.124;21.210;2023-05-19T11:10:24;6.40;;;2.50;;
77814;SDS011;67002;52.124;21.210;2023-05-19T11:12:56;8.60;;;3.80;;
77814;SDS011;67002;52.124;21.210;2023-05-19T11:15:32;7.30;;;3.10;;
77814;SDS011;67002;52.124;21.210;2023-05-19T11:18:05;7.30;;;2.90;;
77814;SDS011;67002;52.124;21.210;2023-05-19T11:20:38;6.60;;;3.20;;
77814;SDS011;67002;52.124;21.210;2023-05-19T11:23:14;9.10;;;3.80;;
77814;SDS011;67002;52.124;21.210;2023-05-19T11:25:47;7.00;;;3.50;;
77814;SDS011;67002;52.124;21.210;2023-05-19T11:28:20;8.00;;;3.50;;
77814;SDS011;67002;52.124;21.210;2023-05-19T11:30:56;6.90;;;3.70;;
77814;SDS011;67002;52.124;21.210;2023-05-19T11:33:30;6.90;;;3.30;;
77814;SDS011;67002;52.124;21.210;2023-05-19T11:36:02;8.50;;;3.20;;
77814;SDS011;67002;52.124;21.210;2023-05-19T11:38:35;7.50;;;3.90;;
77814;SDS011;67002;52.124;21.210;2023-05-19T11:41:06;7.00;;;3.40;;
77814;SDS011;67002;52.124;21.210;2023-05-19T11:43:38;5.90;;;3.50;;
77814;SDS011;67002;52.124;21.210;2023-05-19T11:46:10;8.60;;;4.20;;
77814;SDS011;67002;52.124;21.210;2023-05-19T11:48:42;7.70;;;3.70;;
77814;SDS011;67002;52.124;21.210;2023-05-19T11:51:18;6.90;;;4.10;;
77814;SDS011;67002;52.124;21.210;2023-05-19T11:53:51;7.40;;;3.40;;
77814;SDS011;67002;52.124;21.210;2023-05-19T11:56:23;6.40;;;3.70;;
77814;SDS011;67002;52.124;21.210;2023-05-19T11:58:55;8.90;;;3.70;;
77814;SDS011;67002;52.124;21.210;2023-05-19T12:01:27;9.30;;;3.60;;
77814;SDS011;67002;52.124;21.210;2023-05-19T12:04:00;7.00;;;4.10;;
77814;SDS011;67002;52.124;21.210;2023-05-19T12:06:32;6.00;;;3.80;;
77814;SDS011;67002;52.124;21.210;2023-05-19T12:09:05;5.80;;;3.50;;
77814;SDS011;67002;52.124;21.210;2023-05-19T12:11:37;5.60;;;3.50;;
77814;SDS011;67002;52.124;21.210;2023-05-19T12:14:10;5.80;;;3.20;;
77814;SDS011;67002;52.124;21.210;2023-05-19T12:16:42;8.40;;;3.60;;
77814;SDS011;67002;52.124;21.210;2023-05-19T12:19:14;7.80;;;3.40;;
77814;SDS011;67002;52.124;21.210;2023-05-19T12:21:46;6.20;;;2.90;;
77814;SDS011;67002;52.124;21.210;2023-05-19T12:24:19;6.80;;;3.70;;
77814;SDS011;67002;52.124;21.210;2023-05-19T12:26:52;7.80;;;3.50;;
77814;SDS011;67002;52.124;21.210;2023-05-19T12:29:36;5.40;;;3.00;;
77814;SDS011;67002;52.124;21.210;2023-05-19T12:32:08;6.90;;;3.40;;
77814;SDS011;67002;52.124;21.210;2023-05-19T12:34:40;6.10;;;3.50;;
77814;SDS011;67002;52.124;21.210;2023-05-19T12:37:12;6.50;;;3.10;;
77814;SDS011;67002;52.124;21.210;2023-05-19T12:39:44;5.10;;;2.90;;
77814;SDS011;67002;52.124;21.210;2023-05-19T12:42:17;4.50;;;2.70;;
77814;SDS011;67002;52.124;21.210;2023-05-19T12:44:49;5.10;;;3.10;;
77814;SDS011;67002;52.124;21.210;2023-05-19T12:47:28;8.30;;;3.80;;
77814;SDS011;67002;52.124;21.210;2023-05-19T12:50:03;6.80;;;3.50;;
77814;SDS011;67002;52.124;21.210;2023-05-19T12:52:40;6.90;;;3.30;;
77814;SDS011;67002;52.124;21.210;2023-05-19T12:55:13;6.60;;;3.00;;
77814;SDS011;67002;52.124;21.210;2023-05-19T12:57:47;5.40;;;3.10;;
77814;SDS011;67002;52.124;21.210;2023-05-19T13:00:22;6.60;;;2.90;;
77814;SDS011;67002;52.124;21.210;2023-05-19T13:02:58;7.40;;;3.50;;
77814;SDS011;67002;52.124;21.210;2023-05-19T13:05:31;11.80;;;3.40;;
77814;SDS011;67002;52.124;21.210;2023-05-19T13:08:05;6.70;;;3.70;;
77814;SDS011;67002;52.124;21.210;2023-05-19T13:13:08;4.10;;;2.70;;
77814;SDS011;67002;52.124;21.210;2023-05-19T13:15:41;4.70;;;2.60;;
77814;SDS011;67002;52.124;21.210;2023-05-19T13:18:14;4.70;;;2.60;;
77814;SDS011;67002;52.124;21.210;2023-05-19T13:20:46;4.40;;;2.90;;
77814;SDS011;67002;52.124;21.210;2023-05-19T13:23:19;3.70;;;2.10;;
77814;SDS011;67002;52.124;21.210;2023-05-19T13:25:51;5.30;;;3.00;;
77814;SDS011;67002;52.124;21.210;2023-05-19T13:28:22;5.00;;;2.90;;
77814;SDS011;67002;52.124;21.210;2023-05-19T13:30:54;5.50;;;2.80;;
77814;SDS011;67002;52.124;21.210;2023-05-19T13:33:27;4.40;;;2.80;;
77814;SDS011;67002;52.124;21.210;2023-05-19T13:35:59;4.70;;;2.80;;
77814;SDS011;67002;52.124;21.210;2023-05-19T13:38:31;4.90;;;2.70;;
77814;SDS011;67002;52.124;21.210;2023-05-19T13:41:03;5.00;;;2.90;;
77814;SDS011;67002;52.124;21.210;2023-05-19T13:43:38;5.00;;;2.70;;
77814;SDS011;67002;52.124;21.210;2023-05-19T13:46:10;5.30;;;3.20;;
77814;SDS011;67002;52.124;21.210;2023-05-19T13:48:42;4.00;;;2.20;;
77814;SDS011;67002;52.124;21.210;2023-05-19T13:51:14;5.80;;;3.40;;
77814;SDS011;67002;52.124;21.210;2023-05-19T13:53:46;4.00;;;2.80;;
77814;SDS011;67002;52.124;21.210;2023-05-19T13:56:18;5.00;;;2.70;;
77814;SDS011;67002;52.124;21.210;2023-05-19T13:58:50;4.60;;;2.40;;
77814;SDS011;67002;52.124;21.210;2023-05-19T14:01:22;4.00;;;2.90;;
77814;SDS011;67002;52.124;21.210;2023-05-19T14:03:54;4.20;;;2.60;;
77814;SDS011;67002;52.124;21.210;2023-05-19T14:06:26;5.10;;;2.60;;
77814;SDS011;67002;52.124;21.210;2023-05-19T14:08:58;4.80;;;3.00;;
77814;SDS011;67002;52.124;21.210;2023-05-19T14:11:30;5.70;;;3.60;;
77814;SDS011;67002;52.124;21.210;2023-05-19T14:14:02;7.80;;;3.80;;
77814;SDS011;67002;52.124;21.210;2023-05-19T14:16:37;6.40;;;3.40;;
77814;SDS011;67002;52.124;21.210;2023-05-19T14:19:09;7.80;;;3.50;;
77814;SDS011;67002;52.124;21.210;2023-05-19T14:21:41;9.00;;;4.20;;
77814;SDS011;67002;52.124;21.210;2023-05-19T14:24:12;6.30;;;3.50;;
77814;SDS011;67002;52.124;21.210;2023-05-19T14:26:44;5.50;;;3.30;;
77814;SDS011;67002;52.124;21.210;2023-05-19T14:29:17;5.90;;;4.00;;
77814;SDS011;67002;52.124;21.210;2023-05-19T14:31:49;4.50;;;3.00;;
77814;SDS011;67002;52.124;21.210;2023-05-19T14:34:21;4.70;;;2.90;;
77814;SDS011;67002;52.124;21.210;2023-05-19T14:36:53;6.20;;;3.50;;
77814;SDS011;67002;52.124;21.210;2023-05-19T14:39:25;6.70;;;3.10;;
77814;SDS011;67002;52.124;21.210;2023-05-19T14:41:58;7.10;;;3.70;;
77814;SDS011;67002;52.124;21.210;2023-05-19T14:44:30;8.10;;;3.70;;
77814;SDS011;67002;52.124;21.210;2023-05-19T14:47:04;5.60;;;3.00;;
77814;SDS011;67002;52.124;21.210;2023-05-19T14:49:36;4.90;;;3.30;;
77814;SDS011;67002;52.124;21.210;2023-05-19T14:52:08;5.60;;;3.30;;
77814;SDS011;67002;52.124;21.210;2023-05-19T14:54:43;4.70;;;2.70;;
77814;SDS011;67002;52.124;21.210;2023-05-19T14:57:15;5.60;;;3.30;;
77814;SDS011;67002;52.124;21.210;2023-05-19T14:59:47;6.60;;;3.40;;
77814;SDS011;67002;52.124;21.210;2023-05-19T15:02:19;6.90;;;3.40;;
77814;SDS011;67002;52.124;21.210;2023-05-19T15:04:51;6.20;;;4.40;;
77814;SDS011;67002;52.124;21.210;2023-05-19T15:07:23;4.60;;;3.10;;
77814;SDS011;67002;52.124;21.210;2023-05-19T15:09:55;7.10;;;2.80;;
77814;SDS011;67002;52.124;21.210;2023-05-19T15:12:27;5.90;;;3.30;;
77814;SDS011;67002;52.124;21.210;2023-05-19T15:14:59;3.60;;;3.00;;
77814;SDS011;67002;52.124;21.210;2023-05-19T15:17:31;5.40;;;2.80;;
77814;SDS011;67002;52.124;21.210;2023-05-19T15:20:05;5.10;;;3.00;;
77814;SDS011;67002;52.124;21.210;2023-05-19T15:22:37;5.60;;;3.20;;
77814;SDS011;67002;52.124;21.210;2023-05-19T15:25:10;4.10;;;2.40;;
77814;SDS011;67002;52.124;21.210;2023-05-19T15:27:42;6.70;;;3.60;;
77814;SDS011;67002;52.124;21.210;2023-05-19T15:30:14;4.70;;;3.50;;
77814;SDS011;67002;52.124;21.210;2023-05-19T15:32:46;6.20;;;3.70;;
77814;SDS011;67002;52.124;21.210;2023-05-19T15:35:18;5.90;;;3.90;;
77814;SDS011;67002;52.124;21.210;2023-05-19T15:37:50;5.50;;;3.60;;